sensor_id;sensor_type;location;lat;lon;timestamp;P1;durP1;ratioP1;P2;durP2;ratioP2
16642;SDS011;8435;52.184;5.406;2023-11-21T00:02:14;15.67;;;12.77;;
16642;SDS011;8435;52.184;5.406;2023-11-21T00:04:41;15.40;;;12.07;;
16642;SDS011;8435;52.184;5.406;2023-11-21T00:07:08;12.67;;;10.60;;
16642;SDS011;8435;52.184;5.406;2023-11-21T00:09:36;16.40;;;11.40;;
16642;SDS011;8435;52.184;5.406;2023-11-21T00:12:03;13.70;;;10.43;;
16642;SDS011;8435;52.184;5.406;2023-11-21T00:14:31;17.47;;;12.47;;
16642;SDS011;8435;52.184;5.406;2023-11-21T00:16:58;15.10;;;11.13;;
16642;SDS011;8435;52.184;5.406;2023-11-21T00:19:25;14.33;;;10.77;;
16642;SDS011;8435;52.184;5.406;2023-11-21T00:21:52;14.97;;;10.90;;
16642;SDS011;8435;52.184;5.406;2023-11-21T00:24:19;16.23;;;11.60;;
16642;SDS011;8435;52.184;5.406;2023-11-21T00:26:47;17.87;;;11.43;;
16642;SDS011;8435;52.184;5.406;2023-11-21T00:29:14;18.50;;;12.27;;
16642;SDS011;8435;52.184;5.406;2023-11-21T00:31:42;13.67;;;11.67;;
16642;SDS011;8435;52.184;5.406;2023-11-21T00:34:09;14.37;;;10.80;;
16642;SDS011;8435;52.184;5.406;2023-11-21T00:36:37;13.80;;;10.40;;
16642;SDS011;8435;52.184;5.406;2023-11-21T00:39:04;14.03;;;10.67;;
16642;SDS011;8435;52.184;5.406;2023-11-21T00:41:32;15.40;;;11.10;;
16642;SDS011;8435;52.184;5.406;2023-11-21T00:44:00;12.83;;;11.40;;
16642;SDS011;8435;52.184;5.406;2023-11-21T00:46:27;13.70;;;10.60;;
16642;SDS011;8435;52.184;5.406;2023-11-21T00:48:54;13.43;;;10.87;;
16642;SDS011;8435;52.184;5.406;2023-11-21T00:51:21;14.73;;;10.47;;
16642;SDS011;8435;52.184;5.406;2023-11-21T00:53:48;13.37;;;9.60;;
16642;SDS011;8435;52.184;5.406;2023-11-21T00:56:15;14.70;;;10.00;;
16642;SDS011;8435;52.184;5.406;2023-11-21T00:58:42;14.17;;;10.40;;
16642;SDS011;8435;52.184;5.406;2023-11-21T01:01:13;13.27;;;9.90;;
16642;SDS011;8435;52.184;5.406;2023-11-21T01:03:39;12.63;;;10.00;;
16642;SDS011;8435;52.184;5.406;2023-11-21T01:06:06;12.63;;;9.73;;
16642;SDS011;8435;52.184;5.406;2023-11-21T01:08:34;12.67;;;9.47;;
16642;SDS011;8435;52.184;5.406;2023-11-21T01:11:01;13.83;;;10.23;;
16642;SDS011;8435;52.184;5.406;2023-11-21T01:13:28;10.47;;;8.70;;
16642;SDS011;8435;52.184;5.406;2023-11-21T01:15:57;11.23;;;9.57;;
16642;SDS011;8435;52.184;5.406;2023-11-21T01:18:25;11.90;;;9.17;;
16642;SDS011;8435;52.184;5.406;2023-11-21T01:20:52;14.13;;;10.07;;
16642;SDS011;8435;52.184;5.406;2023-11-21T01:23:19;12.70;;;9.57;;
16642;SDS011;8435;52.184;5.406;2023-11-21T01:25:45;13.37;;;9.90;;
16642;SDS011;8435;52.184;5.406;2023-11-21T01:28:12;15.00;;;10.13;;
16642;SDS011;8435;52.184;5.406;2023-11-21T01:30:39;14.30;;;10.87;;
16642;SDS011;8435;52.184;5.406;2023-11-21T01:33:06;11.77;;;9.93;;
16642;SDS011;8435;52.184;5.406;2023-11-21T01:35:35;11.00;;;9.80;;
16642;SDS011;8435;52.184;5.406;2023-11-21T01:38:02;11.30;;;9.07;;
16642;SDS011;8435;52.184;5.406;2023-11-21T01:40:28;11.77;;;9.93;;
16642;SDS011;8435;52.184;5.406;2023-11-21T01:42:55;13.97;;;11.43;;
16642;SDS011;8435;52.184;5.406;2023-11-21T01:45:23;13.70;;;9.67;;
16642;SDS011;8435;52.184;5.406;2023-11-21T01:47:50;11.87;;;10.43;;
16642;SDS011;8435;52.184;5.406;2023-11-21T01:50:17;16.47;;;10.53;;
16642;SDS011;8435;52.184;5.406;2023-11-21T01:52:46;11.63;;;9.67;;
16642;SDS011;8435;52.184;5.406;2023-11-21T01:55:14;14.43;;;9.60;;
16642;SDS011;8435;52.184;5.406;2023-11-21T01:57:44;12.20;;;8.63;;
16642;SDS011;8435;52.184;5.406;2023-11-21T02:00:12;12.10;;;9.57;;
16642;SDS011;8435;52.184;5.406;2023-11-21T02:02:42;12.00;;;9.00;;
16642;SDS011;8435;52.184;5.406;2023-11-21T02:05:09;12.00;;;9.87;;
16642;SDS011;8435;52.184;5.406;2023-11-21T02:07:37;10.90;;;8.30;;
16642;SDS011;8435;52.184;5.406;2023-11-21T02:10:06;10.13;;;8.67;;
16642;SDS011;8435;52.184;5.406;2023-11-21T02:12:34;12.50;;;8.70;;
16642;SDS011;8435;52.184;5.406;2023-11-21T02:15:02;11.67;;;9.20;;
16642;SDS011;8435;52.184;5.406;2023-11-21T02:17:30;10.07;;;8.40;;
16642;SDS011;8435;52.184;5.406;2023-11-21T02:19:57;12.33;;;8.93;;
16642;SDS011;8435;52.184;5.406;2023-11-21T02:22:25;12.27;;;8.97;;
16642;SDS011;8435;52.184;5.406;2023-11-21T02:24:57;13.27;;;9.07;;
16642;SDS011;8435;52.184;5.406;2023-11-21T02:27:24;8.90;;;7.50;;
16642;SDS011;8435;52.184;5.406;2023-11-21T02:29:52;8.60;;;7.57;;
16642;SDS011;8435;52.184;5.406;2023-11-21T02:32:19;9.47;;;7.63;;
16642;SDS011;8435;52.184;5.406;2023-11-21T02:34:48;8.17;;;7.37;;
16642;SDS011;8435;52.184;5.406;2023-11-21T02:37:14;11.30;;;6.90;;
16642;SDS011;8435;52.184;5.406;2023-11-21T02:39:41;10.20;;;7.43;;
16642;SDS011;8435;52.184;5.406;2023-11-21T02:42:10;8.57;;;7.10;;
16642;SDS011;8435;52.184;5.406;2023-11-21T02:44:36;10.57;;;7.20;;
16642;SDS011;8435;52.184;5.406;2023-11-21T02:47:03;10.07;;;7.37;;
16642;SDS011;8435;52.184;5.406;2023-11-21T02:49:30;7.83;;;7.03;;
16642;SDS011;8435;52.184;5.406;2023-11-21T02:51:59;8.60;;;7.20;;
16642;SDS011;8435;52.184;5.406;2023-11-21T02:54:26;10.17;;;6.87;;
16642;SDS011;8435;52.184;5.406;2023-11-21T02:56:53;10.10;;;7.07;;
16642;SDS011;8435;52.184;5.406;2023-11-21T02:59:21;8.33;;;6.97;;
16642;SDS011;8435;52.184;5.406;2023-11-21T03:01:48;11.80;;;7.13;;
16642;SDS011;8435;52.184;5.406;2023-11-21T03:04:15;10.57;;;6.97;;
16642;SDS011;8435;52.184;5.406;2023-11-21T03:06:42;14.23;;;6.80;;
16642;SDS011;8435;52.184;5.406;2023-11-21T03:09:10;9.10;;;6.90;;
16642;SDS011;8435;52.184;5.406;2023-11-21T03:11:38;8.83;;;6.67;;
16642;SDS011;8435;52.184;5.406;2023-11-21T03:14:05;9.47;;;6.73;;
16642;SDS011;8435;52.184;5.406;2023-11-21T03:16:33;7.93;;;6.37;;
16642;SDS011;8435;52.184;5.406;2023-11-21T03:19:00;9.90;;;6.50;;
16642;SDS011;8435;52.184;5.406;2023-11-21T03:21:27;7.47;;;6.37;;
16642;SDS011;8435;52.184;5.406;2023-11-21T03:23:54;7.50;;;6.07;;
16642;SDS011;8435;52.184;5.406;2023-11-21T03:26:21;8.30;;;6.13;;
16642;SDS011;8435;52.184;5.406;2023-11-21T03:28:48;9.43;;;6.43;;
16642;SDS011;8435;52.184;5.406;2023-11-21T03:31:15;8.63;;;6.30;;
16642;SDS011;8435;52.184;5.406;2023-11-21T03:33:44;11.17;;;6.63;;
16642;SDS011;8435;52.184;5.406;2023-11-21T03:36:12;9.07;;;6.47;;
16642;SDS011;8435;52.184;5.406;2023-11-21T03:38:39;8.57;;;6.83;;
16642;SDS011;8435;52.184;5.406;2023-11-21T03:41:06;8.30;;;5.90;;
16642;SDS011;8435;52.184;5.406;2023-11-21T03:43:35;10.23;;;7.23;;
16642;SDS011;8435;52.184;5.406;2023-11-21T03:46:01;11.73;;;7.27;;
16642;SDS011;8435;52.184;5.406;2023-11-21T03:48:28;8.87;;;7.27;;
16642;SDS011;8435;52.184;5.406;2023-11-21T03:50:56;10.53;;;7.27;;
16642;SDS011;8435;52.184;5.406;2023-11-21T03:53:23;9.27;;;6.93;;
16642;SDS011;8435;52.184;5.406;2023-11-21T03:55:50;8.07;;;6.57;;
16642;SDS011;8435;52.184;5.406;2023-11-21T03:58:17;9.30;;;6.70;;
16642;SDS011;8435;52.184;5.406;2023-11-21T04:00:43;8.33;;;6.60;;
16642;SDS011;8435;52.184;5.406;2023-11-21T04:03:10;8.40;;;7.00;;
16642;SDS011;8435;52.184;5.406;2023-11-21T04:05:38;7.63;;;6.60;;
16642;SDS011;8435;52.184;5.406;2023-11-21T04:08:07;10.63;;;7.33;;
16642;SDS011;8435;52.184;5.406;2023-11-21T04:10:34;9.70;;;6.90;;
16642;SDS011;8435;52.184;5.406;2023-11-21T04:13:01;11.50;;;7.13;;
16642;SDS011;8435;52.184;5.406;2023-11-21T04:15:27;7.97;;;6.70;;
16642;SDS011;8435;52.184;5.406;2023-11-21T04:17:54;8.77;;;6.63;;
16642;SDS011;8435;52.184;5.406;2023-11-21T04:20:21;9.80;;;6.73;;
16642;SDS011;8435;52.184;5.406;2023-11-21T04:22:48;10.40;;;7.13;;
16642;SDS011;8435;52.184;5.406;2023-11-21T04:25:16;9.70;;;7.17;;
16642;SDS011;8435;52.184;5.406;2023-11-21T04:27:44;9.33;;;7.47;;
16642;SDS011;8435;52.184;5.406;2023-11-21T04:30:11;11.77;;;7.30;;
16642;SDS011;8435;52.184;5.406;2023-11-21T04:32:39;11.80;;;7.60;;
16642;SDS011;8435;52.184;5.406;2023-11-21T04:35:07;9.87;;;7.27;;
16642;SDS011;8435;52.184;5.406;2023-11-21T04:37:34;11.37;;;8.40;;
16642;SDS011;8435;52.184;5.406;2023-11-21T04:40:01;9.53;;;7.50;;
16642;SDS011;8435;52.184;5.406;2023-11-21T04:42:32;10.50;;;7.17;;
16642;SDS011;8435;52.184;5.406;2023-11-21T04:45:00;10.33;;;7.17;;
16642;SDS011;8435;52.184;5.406;2023-11-21T04:47:30;8.37;;;7.10;;
16642;SDS011;8435;52.184;5.406;2023-11-21T04:49:57;10.53;;;8.37;;
16642;SDS011;8435;52.184;5.406;2023-11-21T04:52:23;11.23;;;7.73;;
16642;SDS011;8435;52.184;5.406;2023-11-21T04:54:50;12.20;;;8.20;;
16642;SDS011;8435;52.184;5.406;2023-11-21T04:57:19;9.93;;;8.43;;
16642;SDS011;8435;52.184;5.406;2023-11-21T04:59:48;10.73;;;8.70;;
16642;SDS011;8435;52.184;5.406;2023-11-21T05:02:15;11.20;;;7.83;;
16642;SDS011;8435;52.184;5.406;2023-11-21T05:04:44;11.10;;;9.20;;
16642;SDS011;8435;52.184;5.406;2023-11-21T05:07:11;11.37;;;8.30;;
16642;SDS011;8435;52.184;5.406;2023-11-21T05:09:40;11.53;;;8.70;;
16642;SDS011;8435;52.184;5.406;2023-11-21T05:12:09;12.07;;;9.80;;
16642;SDS011;8435;52.184;5.406;2023-11-21T05:14:36;11.67;;;8.50;;
16642;SDS011;8435;52.184;5.406;2023-11-21T05:17:05;12.43;;;9.30;;
16642;SDS011;8435;52.184;5.406;2023-11-21T05:19:33;14.73;;;8.77;;
16642;SDS011;8435;52.184;5.406;2023-11-21T05:22:01;11.40;;;8.60;;
16642;SDS011;8435;52.184;5.406;2023-11-21T05:24:27;12.53;;;8.03;;
16642;SDS011;8435;52.184;5.406;2023-11-21T05:26:54;10.00;;;8.57;;
16642;SDS011;8435;52.184;5.406;2023-11-21T05:29:22;10.80;;;8.07;;
16642;SDS011;8435;52.184;5.406;2023-11-21T05:31:49;10.80;;;7.93;;
16642;SDS011;8435;52.184;5.406;2023-11-21T05:34:17;9.97;;;8.20;;
16642;SDS011;8435;52.184;5.406;2023-11-21T05:36:45;8.93;;;8.03;;
16642;SDS011;8435;52.184;5.406;2023-11-21T05:39:13;9.60;;;7.67;;
16642;SDS011;8435;52.184;5.406;2023-11-21T05:41:42;10.77;;;7.67;;
16642;SDS011;8435;52.184;5.406;2023-11-21T05:44:09;9.57;;;8.47;;
16642;SDS011;8435;52.184;5.406;2023-11-21T05:46:35;9.70;;;7.77;;
16642;SDS011;8435;52.184;5.406;2023-11-21T05:49:02;11.03;;;8.30;;
16642;SDS011;8435;52.184;5.406;2023-11-21T05:51:30;9.50;;;8.03;;
16642;SDS011;8435;52.184;5.406;2023-11-21T05:53:57;11.27;;;8.00;;
16642;SDS011;8435;52.184;5.406;2023-11-21T05:56:24;10.37;;;7.87;;
16642;SDS011;8435;52.184;5.406;2023-11-21T05:58:51;15.67;;;8.20;;
16642;SDS011;8435;52.184;5.406;2023-11-21T06:01:18;11.53;;;8.03;;
16642;SDS011;8435;52.184;5.406;2023-11-21T06:03:45;10.43;;;7.77;;
16642;SDS011;8435;52.184;5.406;2023-11-21T06:06:11;10.83;;;8.27;;
16642;SDS011;8435;52.184;5.406;2023-11-21T06:08:40;8.47;;;7.40;;
16642;SDS011;8435;52.184;5.406;2023-11-21T06:11:06;9.80;;;8.37;;
16642;SDS011;8435;52.184;5.406;2023-11-21T06:13:33;11.83;;;8.87;;
16642;SDS011;8435;52.184;5.406;2023-11-21T06:16:00;12.00;;;7.80;;
16642;SDS011;8435;52.184;5.406;2023-11-21T06:18:27;8.60;;;7.60;;
16642;SDS011;8435;52.184;5.406;2023-11-21T06:20:54;11.27;;;8.00;;
16642;SDS011;8435;52.184;5.406;2023-11-21T06:23:21;9.47;;;7.33;;
16642;SDS011;8435;52.184;5.406;2023-11-21T06:25:49;11.30;;;8.27;;
16642;SDS011;8435;52.184;5.406;2023-11-21T06:28:16;8.50;;;7.07;;
16642;SDS011;8435;52.184;5.406;2023-11-21T06:30:43;10.60;;;7.43;;
16642;SDS011;8435;52.184;5.406;2023-11-21T06:33:11;9.93;;;7.27;;
16642;SDS011;8435;52.184;5.406;2023-11-21T06:35:37;11.33;;;7.67;;
16642;SDS011;8435;52.184;5.406;2023-11-21T06:38:05;10.80;;;7.97;;
16642;SDS011;8435;52.184;5.406;2023-11-21T06:40:31;11.30;;;7.87;;
16642;SDS011;8435;52.184;5.406;2023-11-21T06:43:00;10.40;;;7.37;;
16642;SDS011;8435;52.184;5.406;2023-11-21T06:45:27;16.10;;;9.20;;
16642;SDS011;8435;52.184;5.406;2023-11-21T06:47:54;12.10;;;7.97;;
16642;SDS011;8435;52.184;5.406;2023-11-21T06:50:27;9.23;;;7.17;;
16642;SDS011;8435;52.184;5.406;2023-11-21T06:53:08;9.53;;;7.93;;
16642;SDS011;8435;52.184;5.406;2023-11-21T06:55:38;9.43;;;7.53;;
16642;SDS011;8435;52.184;5.406;2023-11-21T06:58:12;9.57;;;7.60;;
16642;SDS011;8435;52.184;5.406;2023-11-21T07:00:40;8.07;;;6.87;;
16642;SDS011;8435;52.184;5.406;2023-11-21T07:03:11;8.43;;;6.80;;
16642;SDS011;8435;52.184;5.406;2023-11-21T07:05:38;10.60;;;7.60;;
16642;SDS011;8435;52.184;5.406;2023-11-21T07:08:05;12.23;;;7.50;;
16642;SDS011;8435;52.184;5.406;2023-11-21T07:10:32;8.17;;;6.97;;
16642;SDS011;8435;52.184;5.406;2023-11-21T07:13:00;8.53;;;7.00;;
16642;SDS011;8435;52.184;5.406;2023-11-21T07:15:28;10.27;;;7.40;;
16642;SDS011;8435;52.184;5.406;2023-11-21T07:17:54;12.03;;;7.07;;
16642;SDS011;8435;52.184;5.406;2023-11-21T07:20:21;8.73;;;6.10;;
16642;SDS011;8435;52.184;5.406;2023-11-21T07:22:48;9.23;;;5.97;;
16642;SDS011;8435;52.184;5.406;2023-11-21T07:25:15;8.50;;;6.30;;
16642;SDS011;8435;52.184;5.406;2023-11-21T07:27:42;7.90;;;5.23;;
16642;SDS011;8435;52.184;5.406;2023-11-21T07:30:10;8.43;;;5.50;;
16642;SDS011;8435;52.184;5.406;2023-11-21T07:32:39;9.27;;;5.50;;
16642;SDS011;8435;52.184;5.406;2023-11-21T07:35:06;7.93;;;5.40;;
16642;SDS011;8435;52.184;5.406;2023-11-21T07:37:34;7.77;;;5.37;;
16642;SDS011;8435;52.184;5.406;2023-11-21T07:40:00;6.47;;;5.53;;
16642;SDS011;8435;52.184;5.406;2023-11-21T07:42:27;7.37;;;5.77;;
16642;SDS011;8435;52.184;5.406;2023-11-21T07:44:54;8.67;;;6.40;;
16642;SDS011;8435;52.184;5.406;2023-11-21T07:47:21;7.37;;;6.00;;
16642;SDS011;8435;52.184;5.406;2023-11-21T07:49:53;9.70;;;6.17;;
16642;SDS011;8435;52.184;5.406;2023-11-21T07:52:20;8.87;;;6.50;;
16642;SDS011;8435;52.184;5.406;2023-11-21T07:54:47;8.50;;;5.87;;
16642;SDS011;8435;52.184;5.406;2023-11-21T07:57:14;8.23;;;6.30;;
16642;SDS011;8435;52.184;5.406;2023-11-21T07:59:41;8.27;;;5.10;;
16642;SDS011;8435;52.184;5.406;2023-11-21T08:02:07;7.53;;;5.40;;
16642;SDS011;8435;52.184;5.406;2023-11-21T08:04:34;8.07;;;5.07;;
16642;SDS011;8435;52.184;5.406;2023-11-21T08:07:03;6.10;;;4.50;;
16642;SDS011;8435;52.184;5.406;2023-11-21T08:09:30;6.73;;;5.00;;
16642;SDS011;8435;52.184;5.406;2023-11-21T08:11:58;10.23;;;4.43;;
16642;SDS011;8435;52.184;5.406;2023-11-21T08:14:25;6.20;;;4.43;;
16642;SDS011;8435;52.184;5.406;2023-11-21T08:16:52;7.57;;;4.60;;
16642;SDS011;8435;52.184;5.406;2023-11-21T08:19:22;5.03;;;3.53;;
16642;SDS011;8435;52.184;5.406;2023-11-21T08:21:50;4.70;;;3.70;;
16642;SDS011;8435;52.184;5.406;2023-11-21T08:24:20;5.90;;;3.93;;
16642;SDS011;8435;52.184;5.406;2023-11-21T08:26:47;5.70;;;3.63;;
16642;SDS011;8435;52.184;5.406;2023-11-21T08:29:14;5.30;;;4.17;;
16642;SDS011;8435;52.184;5.406;2023-11-21T08:31:41;5.50;;;3.90;;
16642;SDS011;8435;52.184;5.406;2023-11-21T08:34:09;4.70;;;4.20;;
16642;SDS011;8435;52.184;5.406;2023-11-21T08:36:40;5.53;;;4.80;;
16642;SDS011;8435;52.184;5.406;2023-11-21T08:39:07;5.40;;;4.57;;
16642;SDS011;8435;52.184;5.406;2023-11-21T08:41:36;6.53;;;4.90;;
16642;SDS011;8435;52.184;5.406;2023-11-21T08:44:03;6.90;;;5.00;;
16642;SDS011;8435;52.184;5.406;2023-11-21T08:46:31;7.63;;;5.47;;
16642;SDS011;8435;52.184;5.406;2023-11-21T08:48:58;5.50;;;5.00;;
16642;SDS011;8435;52.184;5.406;2023-11-21T08:51:26;7.03;;;6.20;;
16642;SDS011;8435;52.184;5.406;2023-11-21T08:53:53;7.23;;;6.13;;
16642;SDS011;8435;52.184;5.406;2023-11-21T08:56:24;8.33;;;6.20;;
16642;SDS011;8435;52.184;5.406;2023-11-21T08:58:52;8.63;;;6.83;;
16642;SDS011;8435;52.184;5.406;2023-11-21T09:01:19;8.40;;;7.07;;
16642;SDS011;8435;52.184;5.406;2023-11-21T09:03:46;7.83;;;6.43;;
16642;SDS011;8435;52.184;5.406;2023-11-21T09:06:13;8.57;;;7.17;;
16642;SDS011;8435;52.184;5.406;2023-11-21T09:08:39;8.70;;;7.63;;
16642;SDS011;8435;52.184;5.406;2023-11-21T09:11:06;9.70;;;8.37;;
16642;SDS011;8435;52.184;5.406;2023-11-21T09:13:34;12.03;;;9.60;;
16642;SDS011;8435;52.184;5.406;2023-11-21T09:16:02;11.97;;;10.20;;
16642;SDS011;8435;52.184;5.406;2023-11-21T09:18:30;10.43;;;9.27;;
16642;SDS011;8435;52.184;5.406;2023-11-21T09:20:57;12.87;;;9.93;;
16642;SDS011;8435;52.184;5.406;2023-11-21T09:23:24;13.00;;;9.67;;
16642;SDS011;8435;52.184;5.406;2023-11-21T09:25:51;10.80;;;8.93;;
16642;SDS011;8435;52.184;5.406;2023-11-21T09:28:21;11.30;;;9.40;;
16642;SDS011;8435;52.184;5.406;2023-11-21T09:30:48;9.10;;;8.20;;
16642;SDS011;8435;52.184;5.406;2023-11-21T09:33:16;7.97;;;7.17;;
16642;SDS011;8435;52.184;5.406;2023-11-21T09:35:43;8.63;;;6.90;;
16642;SDS011;8435;52.184;5.406;2023-11-21T09:38:10;8.87;;;7.43;;
16642;SDS011;8435;52.184;5.406;2023-11-21T09:40:37;8.80;;;6.93;;
16642;SDS011;8435;52.184;5.406;2023-11-21T09:43:05;7.77;;;6.70;;
16642;SDS011;8435;52.184;5.406;2023-11-21T09:45:39;8.47;;;7.23;;
16642;SDS011;8435;52.184;5.406;2023-11-21T09:48:06;8.40;;;6.90;;
16642;SDS011;8435;52.184;5.406;2023-11-21T09:50:39;8.23;;;7.10;;
16642;SDS011;8435;52.184;5.406;2023-11-21T09:53:10;9.67;;;8.13;;
16642;SDS011;8435;52.184;5.406;2023-11-21T09:55:44;9.40;;;6.73;;
16642;SDS011;8435;52.184;5.406;2023-11-21T09:58:13;9.10;;;7.30;;
16642;SDS011;8435;52.184;5.406;2023-11-21T10:00:40;10.67;;;7.67;;
16642;SDS011;8435;52.184;5.406;2023-11-21T10:03:08;7.80;;;6.97;;
16642;SDS011;8435;52.184;5.406;2023-11-21T10:05:35;8.27;;;6.53;;
16642;SDS011;8435;52.184;5.406;2023-11-21T10:08:06;8.70;;;6.20;;
16642;SDS011;8435;52.184;5.406;2023-11-21T10:10:35;8.17;;;6.53;;
16642;SDS011;8435;52.184;5.406;2023-11-21T10:13:03;7.60;;;5.57;;
16642;SDS011;8435;52.184;5.406;2023-11-21T10:15:33;5.57;;;4.80;;
16642;SDS011;8435;52.184;5.406;2023-11-21T10:18:01;6.33;;;5.27;;
16642;SDS011;8435;52.184;5.406;2023-11-21T10:20:29;7.10;;;5.83;;
16642;SDS011;8435;52.184;5.406;2023-11-21T10:22:58;6.17;;;5.30;;
16642;SDS011;8435;52.184;5.406;2023-11-21T10:25:28;6.93;;;6.00;;
16642;SDS011;8435;52.184;5.406;2023-11-21T10:27:57;7.10;;;6.17;;
16642;SDS011;8435;52.184;5.406;2023-11-21T10:30:31;7.23;;;6.17;;
16642;SDS011;8435;52.184;5.406;2023-11-21T10:33:02;7.73;;;6.10;;
16642;SDS011;8435;52.184;5.406;2023-11-21T10:35:39;8.10;;;6.50;;
16642;SDS011;8435;52.184;5.406;2023-11-21T10:38:11;8.27;;;7.00;;
16642;SDS011;8435;52.184;5.406;2023-11-21T10:40:40;7.10;;;6.23;;
16642;SDS011;8435;52.184;5.406;2023-11-21T10:43:09;9.27;;;7.40;;
16642;SDS011;8435;52.184;5.406;2023-11-21T10:45:38;9.33;;;7.00;;
16642;SDS011;8435;52.184;5.406;2023-11-21T10:48:05;9.83;;;7.47;;
16642;SDS011;8435;52.184;5.406;2023-11-21T10:50:34;10.30;;;7.37;;
16642;SDS011;8435;52.184;5.406;2023-11-21T10:53:01;9.27;;;7.50;;
16642;SDS011;8435;52.184;5.406;2023-11-21T10:55:30;11.17;;;8.63;;
16642;SDS011;8435;52.184;5.406;2023-11-21T10:57:58;11.57;;;8.93;;
16642;SDS011;8435;52.184;5.406;2023-11-21T11:00:29;11.03;;;8.47;;
16642;SDS011;8435;52.184;5.406;2023-11-21T11:02:57;11.57;;;9.17;;
16642;SDS011;8435;52.184;5.406;2023-11-21T11:05:25;10.67;;;8.93;;
16642;SDS011;8435;52.184;5.406;2023-11-21T11:07:56;9.60;;;8.47;;
16642;SDS011;8435;52.184;5.406;2023-11-21T11:10:28;10.67;;;8.50;;
16642;SDS011;8435;52.184;5.406;2023-11-21T11:12:55;10.07;;;8.97;;
16642;SDS011;8435;52.184;5.406;2023-11-21T11:15:25;10.13;;;8.27;;
16642;SDS011;8435;52.184;5.406;2023-11-21T11:17:53;9.73;;;8.00;;
16642;SDS011;8435;52.184;5.406;2023-11-21T11:20:22;10.50;;;8.63;;
16642;SDS011;8435;52.184;5.406;2023-11-21T11:22:56;9.83;;;7.93;;
16642;SDS011;8435;52.184;5.406;2023-11-21T11:25:34;9.07;;;8.07;;
16642;SDS011;8435;52.184;5.406;2023-11-21T11:28:15;8.57;;;7.67;;
16642;SDS011;8435;52.184;5.406;2023-11-21T11:30:50;9.37;;;8.27;;
16642;SDS011;8435;52.184;5.406;2023-11-21T11:33:30;10.83;;;7.70;;
16642;SDS011;8435;52.184;5.406;2023-11-21T11:36:04;10.13;;;8.00;;
16642;SDS011;8435;52.184;5.406;2023-11-21T11:38:34;8.20;;;7.40;;
16642;SDS011;8435;52.184;5.406;2023-11-21T11:41:01;9.13;;;8.23;;
16642;SDS011;8435;52.184;5.406;2023-11-21T11:43:31;10.27;;;8.40;;
16642;SDS011;8435;52.184;5.406;2023-11-21T11:46:05;10.50;;;8.13;;
16642;SDS011;8435;52.184;5.406;2023-11-21T11:48:34;10.70;;;9.17;;
16642;SDS011;8435;52.184;5.406;2023-11-21T11:51:05;10.63;;;8.83;;
16642;SDS011;8435;52.184;5.406;2023-11-21T11:53:37;11.27;;;9.30;;
16642;SDS011;8435;52.184;5.406;2023-11-21T11:56:22;11.47;;;9.43;;
16642;SDS011;8435;52.184;5.406;2023-11-21T11:58:52;12.97;;;10.83;;
16642;SDS011;8435;52.184;5.406;2023-11-21T12:01:19;13.97;;;10.83;;
16642;SDS011;8435;52.184;5.406;2023-11-21T12:06:55;12.23;;;10.07;;
16642;SDS011;8435;52.184;5.406;2023-11-21T12:09:24;12.17;;;10.47;;
16642;SDS011;8435;52.184;5.406;2023-11-21T12:11:51;14.00;;;10.90;;
16642;SDS011;8435;52.184;5.406;2023-11-21T12:14:21;12.97;;;10.27;;
16642;SDS011;8435;52.184;5.406;2023-11-21T12:16:48;12.53;;;10.80;;
16642;SDS011;8435;52.184;5.406;2023-11-21T12:19:16;12.83;;;11.00;;
16642;SDS011;8435;52.184;5.406;2023-11-21T12:21:43;12.97;;;10.63;;
16642;SDS011;8435;52.184;5.406;2023-11-21T12:24:10;14.27;;;11.30;;
16642;SDS011;8435;52.184;5.406;2023-11-21T12:26:38;14.00;;;11.40;;
16642;SDS011;8435;52.184;5.406;2023-11-21T12:29:05;12.03;;;10.17;;
16642;SDS011;8435;52.184;5.406;2023-11-21T12:31:34;10.60;;;9.00;;
16642;SDS011;8435;52.184;5.406;2023-11-21T12:34:01;10.73;;;8.97;;
16642;SDS011;8435;52.184;5.406;2023-11-21T12:36:28;9.63;;;8.40;;
16642;SDS011;8435;52.184;5.406;2023-11-21T12:38:55;8.83;;;7.93;;
16642;SDS011;8435;52.184;5.406;2023-11-21T12:41:22;8.67;;;7.30;;
16642;SDS011;8435;52.184;5.406;2023-11-21T12:43:49;8.13;;;7.20;;
16642;SDS011;8435;52.184;5.406;2023-11-21T12:46:16;9.70;;;7.90;;
16642;SDS011;8435;52.184;5.406;2023-11-21T12:48:44;8.30;;;6.90;;
16642;SDS011;8435;52.184;5.406;2023-11-21T12:51:12;7.53;;;6.83;;
16642;SDS011;8435;52.184;5.406;2023-11-21T12:53:40;7.07;;;6.37;;
16642;SDS011;8435;52.184;5.406;2023-11-21T12:56:16;8.20;;;6.47;;
16642;SDS011;8435;52.184;5.406;2023-11-21T12:58:57;9.23;;;6.43;;
16642;SDS011;8435;52.184;5.406;2023-11-21T13:01:27;8.03;;;6.63;;
16642;SDS011;8435;52.184;5.406;2023-11-21T13:03:56;5.90;;;5.30;;
16642;SDS011;8435;52.184;5.406;2023-11-21T13:06:24;6.63;;;6.00;;
16642;SDS011;8435;52.184;5.406;2023-11-21T13:08:51;5.80;;;5.20;;
16642;SDS011;8435;52.184;5.406;2023-11-21T13:11:19;5.50;;;4.83;;
16642;SDS011;8435;52.184;5.406;2023-11-21T13:13:45;4.30;;;3.80;;
16642;SDS011;8435;52.184;5.406;2023-11-21T13:16:12;3.77;;;3.47;;
16642;SDS011;8435;52.184;5.406;2023-11-21T13:18:40;4.03;;;3.43;;
16642;SDS011;8435;52.184;5.406;2023-11-21T13:21:08;4.17;;;3.77;;
16642;SDS011;8435;52.184;5.406;2023-11-21T13:23:38;3.63;;;3.33;;
16642;SDS011;8435;52.184;5.406;2023-11-21T13:26:06;5.33;;;4.17;;
16642;SDS011;8435;52.184;5.406;2023-11-21T13:28:33;4.13;;;3.73;;
16642;SDS011;8435;52.184;5.406;2023-11-21T13:31:03;3.97;;;3.57;;
16642;SDS011;8435;52.184;5.406;2023-11-21T13:33:34;4.07;;;3.43;;
16642;SDS011;8435;52.184;5.406;2023-11-21T13:36:03;4.60;;;4.00;;
16642;SDS011;8435;52.184;5.406;2023-11-21T13:38:34;4.33;;;3.93;;
16642;SDS011;8435;52.184;5.406;2023-11-21T13:41:02;4.80;;;4.30;;
16642;SDS011;8435;52.184;5.406;2023-11-21T13:43:32;5.37;;;4.77;;
16642;SDS011;8435;52.184;5.406;2023-11-21T13:45:59;6.70;;;5.97;;
16642;SDS011;8435;52.184;5.406;2023-11-21T13:48:33;7.23;;;6.53;;
16642;SDS011;8435;52.184;5.406;2023-11-21T13:51:07;7.57;;;6.70;;
16642;SDS011;8435;52.184;5.406;2023-11-21T13:53:42;8.73;;;7.23;;
16642;SDS011;8435;52.184;5.406;2023-11-21T13:56:09;9.10;;;8.03;;
16642;SDS011;8435;52.184;5.406;2023-11-21T13:58:37;9.27;;;8.23;;
16642;SDS011;8435;52.184;5.406;2023-11-21T14:01:11;10.57;;;9.00;;
16642;SDS011;8435;52.184;5.406;2023-11-21T14:03:57;11.07;;;9.03;;
16642;SDS011;8435;52.184;5.406;2023-11-21T14:06:33;11.50;;;10.30;;
16642;SDS011;8435;52.184;5.406;2023-11-21T14:09:09;11.23;;;9.37;;
16642;SDS011;8435;52.184;5.406;2023-11-21T14:11:47;9.63;;;8.53;;
16642;SDS011;8435;52.184;5.406;2023-11-21T14:14:18;11.03;;;9.63;;
16642;SDS011;8435;52.184;5.406;2023-11-21T14:16:45;10.27;;;9.23;;
16642;SDS011;8435;52.184;5.406;2023-11-21T14:19:12;13.67;;;10.40;;
16642;SDS011;8435;52.184;5.406;2023-11-21T14:21:42;12.03;;;10.07;;
16642;SDS011;8435;52.184;5.406;2023-11-21T14:24:11;11.90;;;9.70;;
16642;SDS011;8435;52.184;5.406;2023-11-21T14:26:39;11.07;;;9.80;;
16642;SDS011;8435;52.184;5.406;2023-11-21T14:29:07;11.27;;;9.80;;
16642;SDS011;8435;52.184;5.406;2023-11-21T14:31:39;10.77;;;9.67;;
16642;SDS011;8435;52.184;5.406;2023-11-21T14:34:06;13.77;;;10.80;;
16642;SDS011;8435;52.184;5.406;2023-11-21T14:36:37;14.37;;;11.67;;
16642;SDS011;8435;52.184;5.406;2023-11-21T14:39:05;14.10;;;12.00;;
16642;SDS011;8435;52.184;5.406;2023-11-21T14:41:37;12.60;;;11.30;;
16642;SDS011;8435;52.184;5.406;2023-11-21T14:44:04;12.70;;;10.90;;
16642;SDS011;8435;52.184;5.406;2023-11-21T14:46:36;14.53;;;12.83;;
16642;SDS011;8435;52.184;5.406;2023-11-21T14:49:04;15.00;;;12.47;;
16642;SDS011;8435;52.184;5.406;2023-11-21T14:51:44;15.00;;;12.23;;
16642;SDS011;8435;52.184;5.406;2023-11-21T14:54:25;14.57;;;11.67;;
16642;SDS011;8435;52.184;5.406;2023-11-21T14:57:14;13.00;;;11.60;;
16642;SDS011;8435;52.184;5.406;2023-11-21T14:59:44;14.93;;;12.00;;
16642;SDS011;8435;52.184;5.406;2023-11-21T15:02:12;13.57;;;11.27;;
16642;SDS011;8435;52.184;5.406;2023-11-21T15:04:46;11.40;;;10.30;;